Aviation Digital Data Service (ADDS)

Output produced by METARs form (1508 UTC 25 May 2015)
found at http://www.aviationweather.gov/adds/metars/
 
METAR text: KCCU 251455Z AUTO 28016KT 10SM BKN008 OVC013 M01/M03 A3012 RMK AO2
Conditions at: KCCU (RED CLIFF PASS , CO, US) observed 1455 UTC 25 May 2015
Temperature: -1.0°C (30°F)
Dewpoint: -3.0°C (27°F) [RH = 86%]
Pressure (altimeter): 30.12 inches Hg (1020.1 mb)
Winds: from the W (280 degrees) at 18 MPH (16 knots; 8.3 m/s)
Visibility: 10 or more miles (16+ km)
Ceiling: 800 feet AGL
Clouds: broken clouds at 800 feet AGL
overcast cloud deck at 1300 feet AGL
Weather: automated observation with no human augmentation;
there may or may not be significant weather present at this time